Gushi, China
Current Conditions -  °F | °C
As of 11:00 AM on Friday 19 Dec 2014 (Local Time) from ZSOF Reporting Station
Clear Clear  
Wind Chill: 45°   Ceiling: Unl
Heat Index: 48°   Visibility: 6mi
Dew Point: 32°   Wind: 7mph
Humidity: 54%   Direction: 250°WSW
Pressure: 30.33"   Gusts: NA
Location:  32.18°N, 115.67°E
Report Text: ZSOF 190300Z 25003MPS 210V270 CAVOK 09/M00 Q1027 NOSIG
Loading
Personal Weather Stations






























Interactive Weather Map New forecast layout! Learn more

10-Day Weather Forecast

Advertisements
Track Severe Weather on mobile